Time;durP1;ratioP1;P1;durP2;ratioP2;P2;SDS_P1;SDS_P2;PMS_P1;PMS_P2;Temp;Humidity;BMP_temperature;BMP_pressure;BME280_temperature;BME280_humidity;BME280_pressure;Samples;Min_cycle;Max_cycle;Signal;HPM_P1;HPM_P2
2024/01/26 00:00:43;;;;;;;6.05;2.65;;;12.00;99.90;;;;;;5034489;28;20087;-66
2024/01/26 00:03:10;;;;;;;9.98;2.83;;;12.00;99.90;;;;;;5036960;28;20042;-66
2024/01/26 00:05:37;;;;;;;8.50;2.60;;;12.00;99.90;;;;;;5035672;28;20426;-66
2024/01/26 00:08:05;;;;;;;9.18;2.60;;;12.00;99.90;;;;;;5035501;28;20052;-65
2024/01/26 00:10:35;;;;;;;7.10;2.42;;;12.00;99.90;;;;;;5037109;28;20041;-66
2024/01/26 00:13:02;;;;;;;6.72;2.60;;;11.90;99.90;;;;;;5036451;28;20033;-67
2024/01/26 00:15:29;;;;;;;8.20;2.40;;;11.90;99.90;;;;;;5037382;28;20124;-66
2024/01/26 00:17:56;;;;;;;8.45;2.33;;;11.90;99.90;;;;;;5036782;28;20099;-66
2024/01/26 00:20:23;;;;;;;7.85;2.28;;;11.90;99.90;;;;;;5036943;28;20434;-66
2024/01/26 00:22:53;;;;;;;5.18;1.98;;;12.00;99.90;;;;;;5036933;28;20046;-66
2024/01/26 00:25:20;;;;;;;6.88;1.98;;;12.00;99.90;;;;;;5036461;28;20124;-58
2024/01/26 00:27:47;;;;;;;6.43;1.75;;;12.00;99.90;;;;;;5034977;28;20049;-65
2024/01/26 00:30:14;;;;;;;4.50;1.92;;;12.00;99.90;;;;;;5036843;28;20053;-66
2024/01/26 00:32:41;;;;;;;7.30;1.80;;;12.00;99.90;;;;;;5036824;28;20049;-66
2024/01/26 00:35:07;;;;;;;6.68;1.85;;;12.00;99.90;;;;;;5036549;28;20072;-66
2024/01/26 00:37:34;;;;;;;7.05;2.13;;;12.00;99.90;;;;;;5036719;28;20548;-66
2024/01/26 00:40:01;;;;;;;6.75;1.90;;;12.00;99.90;;;;;;5036503;28;20071;-66
2024/01/26 00:42:28;;;;;;;5.53;1.88;;;12.00;99.90;;;;;;5036402;28;20383;-65
2024/01/26 00:44:55;;;;;;;4.70;1.50;;;12.00;99.90;;;;;;5036127;28;20475;-65
2024/01/26 00:47:22;;;;;;;4.95;1.33;;;12.00;99.90;;;;;;5036222;28;20041;-65
2024/01/26 00:49:48;;;;;;;3.65;1.13;;;12.00;99.90;;;;;;5035166;28;20406;-66
2024/01/26 00:52:19;;;;;;;3.95;1.20;;;12.00;99.90;;;;;;5036552;28;20049;-66
2024/01/26 00:54:45;;;;;;;4.55;1.20;;;12.00;99.90;;;;;;5036022;28;20103;-65
2024/01/26 00:57:13;;;;;;;3.70;1.42;;;12.00;99.90;;;;;;5036049;28;20053;-65
2024/01/26 00:59:39;;;;;;;3.03;1.10;;;12.00;99.90;;;;;;5036194;28;20041;-65
2024/01/26 01:02:06;;;;;;;2.00;0.80;;;12.00;99.90;;;;;;5035927;28;20360;-66
2024/01/26 01:04:33;;;;;;;3.72;1.30;;;12.00;99.90;;;;;;5035641;28;20046;-65
2024/01/26 01:07:00;;;;;;;3.63;0.88;;;12.00;99.90;;;;;;5035938;28;20108;-65
2024/01/26 01:09:27;;;;;;;3.72;1.10;;;12.00;99.90;;;;;;5035679;28;20057;-65
2024/01/26 01:11:54;;;;;;;2.88;1.10;;;12.00;99.90;;;;;;5035531;28;20076;-66
2024/01/26 01:14:21;;;;;;;3.13;1.00;;;12.00;99.90;;;;;;5035560;28;20107;-66
2024/01/26 01:16:50;;;;;;;3.60;0.95;;;12.00;99.90;;;;;;5026669;28;20034;-65
2024/01/26 01:19:16;;;;;;;2.53;0.82;;;12.00;99.90;;;;;;5021087;28;20374;-66
2024/01/26 01:21:43;;;;;;;3.70;0.93;;;12.00;99.90;;;;;;5021250;28;20052;-66
2024/01/26 01:24:10;;;;;;;4.75;1.05;;;12.00;99.90;;;;;;5017685;28;20038;-65
2024/01/26 01:26:37;;;;;;;3.55;1.10;;;12.00;99.90;;;;;;5026410;28;20121;-66
2024/01/26 01:29:04;;;;;;;5.20;1.38;;;12.00;99.90;;;;;;5022824;28;20187;-67
2024/01/26 01:31:30;;;;;;;5.55;1.45;;;11.90;99.90;;;;;;5023610;28;20129;-65
2024/01/26 01:33:57;;;;;;;6.28;1.73;;;11.90;99.90;;;;;;5023421;28;20449;-66
2024/01/26 01:36:24;;;;;;;5.15;2.17;;;11.80;99.90;;;;;;5034978;28;20087;-65
2024/01/26 01:38:51;;;;;;;7.38;1.60;;;11.80;99.90;;;;;;5035423;28;20049;-65
2024/01/26 01:41:18;;;;;;;8.90;1.60;;;11.80;99.90;;;;;;5034975;28;20450;-66
2024/01/26 01:43:45;;;;;;;5.65;1.23;;;11.80;99.90;;;;;;5035259;28;20483;-66
2024/01/26 01:46:12;;;;;;;2.80;1.17;;;11.80;99.90;;;;;;5034868;28;20037;-65
2024/01/26 01:48:39;;;;;;;3.05;1.13;;;11.70;99.90;;;;;;5034236;28;20109;-65
2024/01/26 01:51:06;;;;;;;5.18;1.10;;;11.70;99.90;;;;;;5035358;28;20136;-66
2024/01/26 01:53:32;;;;;;;4.47;1.40;;;11.70;99.90;;;;;;5032501;28;20037;-65
2024/01/26 01:55:59;;;;;;;4.13;1.10;;;11.70;99.90;;;;;;5034639;28;20474;-66
2024/01/26 01:58:26;;;;;;;3.78;0.90;;;11.70;99.90;;;;;;5034620;28;20037;-66
2024/01/26 02:00:53;;;;;;;4.32;1.10;;;11.80;99.90;;;;;;5035271;28;20041;-66
2024/01/26 02:03:21;;;;;;;3.88;1.00;;;11.80;99.90;;;;;;5034595;28;20080;-65
2024/01/26 02:05:48;;;;;;;4.38;0.90;;;11.70;99.90;;;;;;5034713;28;20482;-65
2024/01/26 02:08:15;;;;;;;3.70;1.08;;;11.70;99.90;;;;;;5034562;28;20335;-66
2024/01/26 02:10:42;;;;;;;2.78;0.80;;;11.70;99.90;;;;;;5034377;28;20045;-64
2024/01/26 02:13:08;;;;;;;2.40;0.80;;;11.70;99.90;;;;;;5034350;28;20545;-64
2024/01/26 02:15:35;;;;;;;2.83;0.60;;;11.80;99.90;;;;;;5034541;28;20430;-65
2024/01/26 02:18:02;;;;;;;2.55;0.63;;;11.80;99.90;;;;;;5034801;28;20040;-65
2024/01/26 02:20:29;;;;;;;2.58;0.70;;;11.80;99.90;;;;;;5034732;28;20038;-65
2024/01/26 02:23:12;;;;;;;2.17;0.63;;;11.70;99.90;;;;;;5034548;28;20041;-65
2024/01/26 02:25:39;;;;;;;1.48;0.50;;;11.70;99.90;;;;;;5034323;28;20079;-66
2024/01/26 02:28:06;;;;;;;4.13;0.65;;;11.70;99.90;;;;;;5034113;28;20084;-66
2024/01/26 02:30:35;;;;;;;2.25;0.57;;;11.70;99.90;;;;;;5034297;28;20115;-66
2024/01/26 02:33:02;;;;;;;0.85;0.40;;;11.70;99.90;;;;;;5033235;28;20077;-65
2024/01/26 02:35:29;;;;;;;1.17;0.32;;;11.70;99.90;;;;;;5033823;28;20037;-65
2024/01/26 02:37:56;;;;;;;2.58;0.65;;;11.70;99.90;;;;;;5034323;28;20449;-65
2024/01/26 02:40:22;;;;;;;1.30;0.35;;;11.80;99.90;;;;;;5034214;28;20038;-65
2024/01/26 02:42:49;;;;;;;1.50;0.40;;;11.80;99.90;;;;;;5033123;28;20037;-65
2024/01/26 02:45:16;;;;;;;1.52;0.40;;;11.80;99.90;;;;;;5033959;28;20038;-65
2024/01/26 02:47:43;;;;;;;1.00;0.43;;;11.80;99.90;;;;;;5034168;28;20064;-59
2024/01/26 02:50:10;;;;;;;1.17;0.30;;;11.80;99.90;;;;;;5034231;28;20128;-59
2024/01/26 02:52:37;;;;;;;2.15;0.40;;;11.80;99.90;;;;;;5034086;28;20045;-59
2024/01/26 02:55:03;;;;;;;0.85;0.30;;;11.80;99.90;;;;;;5034120;28;20471;-66
2024/01/26 02:57:30;;;;;;;0.70;0.32;;;11.80;99.90;;;;;;5034011;28;20462;-65
2024/01/26 02:59:57;;;;;;;0.90;0.40;;;11.80;99.90;;;;;;5034173;28;20048;-66
2024/01/26 03:02:24;;;;;;;2.38;0.50;;;11.80;99.90;;;;;;5033774;28;20034;-65
2024/01/26 03:04:51;;;;;;;1.88;0.50;;;11.80;99.90;;;;;;5033843;28;20042;-65
2024/01/26 03:07:17;;;;;;;2.50;0.50;;;11.80;99.90;;;;;;5033601;28;20128;-65
2024/01/26 03:09:44;;;;;;;2.38;0.70;;;11.80;99.90;;;;;;5033886;28;20430;-65
2024/01/26 03:12:11;;;;;;;0.73;0.38;;;11.80;99.90;;;;;;5033416;28;20068;-65
2024/01/26 03:14:38;;;;;;;1.42;0.60;;;11.80;99.90;;;;;;5033359;28;20057;-65
2024/01/26 03:17:05;;;;;;;1.42;0.50;;;11.90;99.90;;;;;;5033558;28;20041;-65
2024/01/26 03:19:35;;;;;;;3.53;0.70;;;11.90;99.90;;;;;;5033877;28;20536;-65
2024/01/26 03:22:02;;;;;;;1.67;0.50;;;11.90;99.90;;;;;;5033674;28;20045;-65
2024/01/26 03:24:28;;;;;;;1.60;0.60;;;11.90;99.90;;;;;;5033602;28;20099;-65
2024/01/26 03:26:55;;;;;;;2.00;0.50;;;11.90;99.90;;;;;;5033678;28;20048;-65
2024/01/26 03:29:22;;;;;;;2.20;0.60;;;11.90;99.90;;;;;;5033234;28;20393;-65
2024/01/26 03:31:49;;;;;;;2.03;0.70;;;11.90;99.90;;;;;;5033375;28;20057;-65
2024/01/26 03:34:16;;;;;;;2.85;0.70;;;11.90;99.90;;;;;;5033635;28;20463;-64
2024/01/26 03:36:43;;;;;;;1.40;0.52;;;11.90;99.90;;;;;;5033185;28;20159;-65
2024/01/26 03:39:09;;;;;;;0.88;0.45;;;11.90;99.90;;;;;;5031995;28;20497;-65
2024/01/26 03:41:37;;;;;;;2.97;1.33;;;12.00;99.90;;;;;;5033327;28;20096;-65
2024/01/26 03:44:03;;;;;;;2.85;0.85;;;12.00;99.90;;;;;;5033230;28;20394;-65
2024/01/26 03:46:30;;;;;;;2.15;0.77;;;12.00;99.90;;;;;;5033440;28;20049;-65
2024/01/26 03:48:57;;;;;;;2.85;0.80;;;12.00;99.90;;;;;;5033423;28;20156;-65
2024/01/26 03:51:24;;;;;;;2.90;0.80;;;12.00;99.90;;;;;;5033423;28;20116;-65
2024/01/26 03:53:50;;;;;;;3.53;1.00;;;12.00;99.90;;;;;;5033108;28;20073;-65
2024/01/26 03:56:17;;;;;;;1.75;0.70;;;11.90;99.90;;;;;;5033683;28;20471;-65
2024/01/26 03:58:44;;;;;;;3.65;0.93;;;11.90;99.90;;;;;;5033449;28;20428;-65
2024/01/26 04:01:11;;;;;;;3.42;1.10;;;11.80;99.90;;;;;;5033453;28;20076;-65
2024/01/26 04:03:38;;;;;;;3.20;0.93;;;11.80;99.90;;;;;;5032782;28;20041;-59
2024/01/26 04:06:08;;;;;;;3.45;1.20;;;11.80;99.90;;;;;;5032069;28;20045;-59
2024/01/26 04:08:35;;;;;;;3.10;1.10;;;11.80;99.90;;;;;;5033013;28;20049;-60
2024/01/26 04:11:01;;;;;;;5.72;1.30;;;11.70;99.90;;;;;;5033658;28;20037;-59
2024/01/26 04:13:28;;;;;;;2.95;1.17;;;11.70;99.90;;;;;;5032547;28;20061;-59
2024/01/26 04:15:55;;;;;;;4.88;1.40;;;11.70;99.90;;;;;;5033149;28;20049;-60
2024/01/26 04:18:22;;;;;;;4.75;1.38;;;11.80;99.90;;;;;;5033265;28;20044;-61
2024/01/26 04:20:49;;;;;;;5.45;1.33;;;11.80;99.90;;;;;;5032742;28;20041;-59
2024/01/26 04:23:16;;;;;;;4.57;1.40;;;11.80;99.90;;;;;;5033347;28;20041;-59
2024/01/26 04:25:43;;;;;;;6.25;1.40;;;11.80;99.90;;;;;;5034962;28;20044;-59
2024/01/26 04:28:10;;;;;;;5.20;1.58;;;11.90;99.90;;;;;;5036797;28;20471;-59
2024/01/26 04:30:39;;;;;;;5.70;1.38;;;11.90;99.90;;;;;;5036667;28;20099;-60
2024/01/26 04:33:06;;;;;;;7.40;1.50;;;11.90;99.90;;;;;;5036609;28;20049;-60
2024/01/26 04:35:33;;;;;;;10.40;1.60;;;11.90;99.90;;;;;;5036201;28;20393;-59
2024/01/26 04:38:00;;;;;;;6.50;1.75;;;11.90;99.90;;;;;;5035386;28;20219;-59
2024/01/26 04:40:27;;;;;;;4.93;1.45;;;12.00;99.90;;;;;;5036302;28;20038;-59
2024/01/26 04:42:54;;;;;;;8.50;1.35;;;11.90;99.90;;;;;;5036426;28;20532;-59
2024/01/26 04:45:20;;;;;;;7.05;1.60;;;12.00;99.90;;;;;;5035953;28;20045;-59
2024/01/26 04:47:47;;;;;;;6.95;1.75;;;12.00;99.90;;;;;;5036224;28;20059;-59
2024/01/26 04:50:14;;;;;;;7.22;1.60;;;12.00;99.90;;;;;;5036387;28;20038;-59
2024/01/26 04:52:41;;;;;;;8.43;1.88;;;12.00;99.90;;;;;;5036382;28;20387;-59
2024/01/26 04:55:10;;;;;;;7.43;2.10;;;11.90;99.90;;;;;;5036219;28;20069;-59
2024/01/26 04:57:36;;;;;;;9.77;1.92;;;11.90;99.90;;;;;;5036242;28;20048;-59
2024/01/26 05:00:03;;;;;;;7.72;2.35;;;12.00;99.90;;;;;;5034753;28;20045;-59
2024/01/26 05:02:30;;;;;;;7.05;1.60;;;12.00;99.90;;;;;;5036472;28;20053;-59
2024/01/26 05:04:57;;;;;;;12.35;3.20;;;12.00;99.90;;;;;;5035861;28;20533;-59
2024/01/26 05:07:24;;;;;;;11.98;2.08;;;11.90;99.90;;;;;;5035950;28;20033;-61
2024/01/26 05:09:51;;;;;;;7.82;1.80;;;11.90;99.90;;;;;;5035921;28;20041;-59
2024/01/26 05:12:17;;;;;;;10.13;2.40;;;12.00;99.90;;;;;;5036276;28;20454;-60
2024/01/26 05:14:44;;;;;;;10.88;3.25;;;12.00;99.90;;;;;;5035715;28;20053;-60
2024/01/26 05:17:11;;;;;;;10.65;2.25;;;12.00;99.90;;;;;;5035625;28;20355;-59
2024/01/26 05:19:38;;;;;;;8.45;2.20;;;12.00;99.90;;;;;;5034226;28;20056;-59
2024/01/26 05:22:05;;;;;;;12.70;2.55;;;12.00;99.90;;;;;;5035934;28;20029;-59
2024/01/26 05:24:32;;;;;;;5.53;1.10;;;11.90;99.90;;;;;;5035569;28;20402;-59
2024/01/26 05:26:58;;;;;;;5.63;1.20;;;11.00;99.90;;;;;;5035652;28;20076;-59
2024/01/26 05:29:25;;;;;;;7.97;1.30;;;10.50;99.90;;;;;;5035424;28;20033;-59
2024/01/26 05:31:53;;;;;;;4.50;1.42;;;10.30;99.90;;;;;;5035336;28;20220;-58
2024/01/26 05:34:20;;;;;;;4.53;0.98;;;10.30;99.90;;;;;;5035414;28;20475;-58
2024/01/26 05:36:47;;;;;;;3.95;0.90;;;10.20;99.90;;;;;;5034970;28;20148;-58
2024/01/26 05:39:14;;;;;;;5.43;0.82;;;10.10;99.90;;;;;;5035364;28;20044;-58
2024/01/26 05:41:42;;;;;;;4.47;0.85;;;10.00;99.90;;;;;;5035512;28;20041;-58
2024/01/26 05:44:08;;;;;;;6.88;1.10;;;9.80;99.90;;;;;;5035217;28;20497;-59
2024/01/26 05:46:35;;;;;;;6.50;1.30;;;9.70;99.90;;;;;;5035396;28;20044;-59
2024/01/26 05:49:02;;;;;;;6.68;1.15;;;9.70;99.90;;;;;;5035370;28;20605;-59
2024/01/26 05:51:35;;;;;;;3.75;1.02;;;9.80;99.90;;;;;;5033850;28;20108;-59
2024/01/26 05:54:02;;;;;;;10.65;1.30;;;9.70;99.90;;;;;;5035075;28;20049;-59
2024/01/26 05:56:29;;;;;;;7.05;1.30;;;9.70;99.90;;;;;;5035161;28;20502;-59
2024/01/26 05:58:55;;;;;;;7.97;1.30;;;9.80;99.90;;;;;;5034960;28;20422;-59
2024/01/26 06:01:22;;;;;;;8.27;1.27;;;9.70;99.90;;;;;;5033949;28;20395;-64
2024/01/26 06:03:49;;;;;;;4.65;1.27;;;9.80;99.90;;;;;;5034769;28;20041;-59
2024/01/26 06:06:16;;;;;;;7.50;1.48;;;9.80;99.90;;;;;;5034814;28;20394;-59
2024/01/26 06:08:43;;;;;;;9.55;1.23;;;9.80;99.90;;;;;;5033796;28;20087;-64
2024/01/26 06:11:11;;;;;;;6.60;1.40;;;9.80;99.90;;;;;;5034964;28;20121;-65
2024/01/26 06:13:38;;;;;;;8.27;1.75;;;9.80;99.90;;;;;;5034434;28;20107;-64
2024/01/26 06:16:05;;;;;;;9.40;1.70;;;9.90;99.90;;;;;;5034741;28;20043;-65
2024/01/26 06:18:32;;;;;;;8.05;1.48;;;9.80;99.90;;;;;;5034668;28;20124;-65
2024/01/26 06:20:59;;;;;;;8.95;1.70;;;9.80;99.90;;;;;;5034762;28;20041;-65
2024/01/26 06:23:26;;;;;;;8.48;1.70;;;9.80;99.90;;;;;;5034587;28;20034;-65
2024/01/26 06:25:53;;;;;;;7.88;2.13;;;9.90;99.90;;;;;;5034894;28;20042;-65
2024/01/26 06:28:20;;;;;;;12.10;2.30;;;9.80;99.90;;;;;;5034695;28;20037;-65
2024/01/26 06:30:46;;;;;;;10.52;2.30;;;9.80;99.90;;;;;;5035216;28;20052;-65
2024/01/26 06:33:13;;;;;;;10.13;2.25;;;9.80;99.90;;;;;;5035837;28;20113;-67
2024/01/26 06:35:40;;;;;;;11.15;1.95;;;9.80;99.90;;;;;;5034808;28;20116;-65
2024/01/26 06:38:07;;;;;;;9.82;2.15;;;9.80;99.90;;;;;;5034495;28;20041;-64
2024/01/26 06:40:34;;;;;;;10.80;1.88;;;9.80;99.90;;;;;;5034403;28;20412;-66
2024/01/26 06:43:05;;;;;;;11.55;2.35;;;9.80;99.90;;;;;;5034391;28;20490;-65
2024/01/26 06:45:33;;;;;;;9.88;2.38;;;9.70;99.90;;;;;;5034375;28;20040;-64
2024/01/26 06:48:00;;;;;;;9.88;2.38;;;9.70;99.90;;;;;;5033078;28;20038;-64
2024/01/26 06:50:27;;;;;;;12.65;2.20;;;9.70;99.90;;;;;;5034298;28;20475;-64
2024/01/26 06:52:54;;;;;;;8.50;1.55;;;9.70;99.90;;;;;;5033910;28;20055;-64
2024/01/26 06:55:20;;;;;;;9.75;1.92;;;9.60;99.90;;;;;;5034024;28;20068;-65
2024/01/26 06:57:47;;;;;;;11.52;1.92;;;9.60;99.90;;;;;;5032557;28;20045;-65
2024/01/26 07:00:14;;;;;;;8.43;1.70;;;9.60;99.90;;;;;;5034071;28;20037;-65
2024/01/26 07:02:41;;;;;;;10.00;1.98;;;9.50;99.90;;;;;;5033686;28;20189;-65
2024/01/26 07:05:08;;;;;;;9.98;2.00;;;9.40;99.90;;;;;;5033522;28;20041;-66
2024/01/26 07:07:35;;;;;;;9.80;1.50;;;9.40;99.90;;;;;;5033246;28;20045;-66
2024/01/26 07:10:01;;;;;;;5.93;1.30;;;9.40;99.90;;;;;;5033329;28;20045;-66
2024/01/26 07:12:28;;;;;;;10.93;1.42;;;9.30;99.90;;;;;;5033649;28;20049;-65
2024/01/26 07:14:55;;;;;;;5.88;1.10;;;9.30;99.90;;;;;;5032953;28;20356;-67
2024/01/26 07:17:22;;;;;;;4.88;1.48;;;9.30;99.90;;;;;;5033893;28;20037;-66
2024/01/26 07:19:48;;;;;;;5.88;0.82;;;9.20;99.90;;;;;;5033138;28;20379;-67
2024/01/26 07:22:15;;;;;;;4.13;1.10;;;9.10;99.90;;;;;;5033154;28;20046;-67
2024/01/26 07:24:42;;;;;;;3.42;0.70;;;9.00;99.90;;;;;;5033187;28;20034;-66
2024/01/26 07:27:09;;;;;;;4.25;0.93;;;9.00;99.90;;;;;;5033635;28;20132;-58
2024/01/26 07:29:36;;;;;;;3.63;0.90;;;8.90;99.90;;;;;;5033489;28;20044;-58
2024/01/26 07:32:03;;;;;;;4.18;1.58;;;8.80;99.90;;;;;;5033622;28;20049;-59
2024/01/26 07:34:30;;;;;;;4.60;0.90;;;8.70;99.90;;;;;;5032936;28;20116;-58
2024/01/26 07:36:58;;;;;;;3.95;0.82;;;8.70;99.90;;;;;;5033364;28;20111;-58
2024/01/26 07:39:26;;;;;;;5.07;0.95;;;8.60;99.90;;;;;;5033068;28;20046;-57
2024/01/26 07:41:53;;;;;;;6.80;1.20;;;8.60;99.90;;;;;;5032958;28;20124;-56
2024/01/26 07:44:20;;;;;;;5.53;0.82;;;8.50;99.90;;;;;;5033189;28;20064;-57
2024/01/26 07:46:47;;;;;;;5.72;1.10;;;8.50;99.90;;;;;;5033085;28;20034;-58
2024/01/26 07:49:14;;;;;;;5.15;0.90;;;8.40;99.90;;;;;;5032935;28;20048;-57
2024/01/26 07:51:41;;;;;;;5.00;1.10;;;8.40;99.90;;;;;;5032840;28;20053;-57
2024/01/26 07:54:08;;;;;;;5.40;0.98;;;8.30;99.90;;;;;;5032906;28;20486;-58
2024/01/26 07:56:35;;;;;;;9.52;1.42;;;8.30;99.90;;;;;;5033009;28;20095;-64
2024/01/26 07:59:01;;;;;;;5.85;1.05;;;8.20;99.90;;;;;;5034530;28;20045;-63
2024/01/26 08:01:29;;;;;;;5.95;1.20;;;8.20;99.90;;;;;;5036965;28;20103;-64
2024/01/26 08:03:56;;;;;;;8.15;1.30;;;8.10;99.90;;;;;;5037190;28;20455;-63
2024/01/26 08:06:22;;;;;;;4.35;1.20;;;8.10;99.90;;;;;;5037127;28;20079;-63
2024/01/26 08:08:50;;;;;;;6.10;1.17;;;8.00;99.90;;;;;;5035662;28;20064;-57
2024/01/26 08:11:17;;;;;;;5.28;1.02;;;8.00;99.90;;;;;;5036928;28;20502;-58
2024/01/26 08:13:44;;;;;;;4.60;1.00;;;8.00;99.90;;;;;;5036575;28;20124;-65
2024/01/26 08:16:11;;;;;;;5.38;0.90;;;7.90;99.90;;;;;;5036650;28;20046;-65
2024/01/26 08:18:37;;;;;;;4.95;1.15;;;7.90;99.90;;;;;;5036714;28;20049;-64
2024/01/26 08:21:05;;;;;;;5.47;1.00;;;7.90;99.90;;;;;;5036735;28;20367;-65
2024/01/26 08:23:32;;;;;;;4.85;1.48;;;7.90;99.90;;;;;;5035872;28;20061;-65
2024/01/26 08:25:59;;;;;;;5.35;1.20;;;7.80;99.90;;;;;;5036459;28;20049;-65
2024/01/26 08:28:26;;;;;;;7.30;1.25;;;7.80;99.90;;;;;;5035503;28;20124;-65
2024/01/26 08:30:53;;;;;;;8.20;1.25;;;7.80;99.90;;;;;;5036499;28;20053;-65
2024/01/26 08:33:19;;;;;;;7.10;1.30;;;7.80;99.90;;;;;;5036468;28;20467;-66
2024/01/26 08:35:47;;;;;;;7.57;1.20;;;7.80;99.90;;;;;;5037401;28;20045;-66
2024/01/26 08:38:14;;;;;;;4.90;1.05;;;7.70;99.90;;;;;;5034354;28;20441;-65
2024/01/26 08:40:40;;;;;;;6.90;1.45;;;7.70;99.90;;;;;;5035361;28;20479;-63
2024/01/26 08:43:08;;;;;;;6.28;1.33;;;7.70;99.90;;;;;;5035786;28;20037;-64
2024/01/26 08:45:35;;;;;;;7.72;1.65;;;7.70;99.90;;;;;;5035417;28;20038;-64
2024/01/26 08:48:02;;;;;;;5.63;1.15;;;7.70;99.90;;;;;;5036018;28;20033;-64
2024/01/26 08:50:29;;;;;;;5.18;1.10;;;7.60;99.90;;;;;;5034708;28;20183;-64
2024/01/26 08:52:56;;;;;;;5.82;1.20;;;7.70;99.90;;;;;;5034392;28;20038;-65
2024/01/26 08:55:23;;;;;;;5.72;1.20;;;7.70;99.90;;;;;;5042311;28;20038;-64
2024/01/26 08:57:50;;;;;;;7.97;2.00;;;7.70;99.90;;;;;;5055421;28;20041;-65
2024/01/26 09:00:19;;;;;;;8.57;1.08;;;7.60;99.90;;;;;;5054841;28;20112;-65
2024/01/26 09:02:47;;;;;;;8.98;1.55;;;7.60;99.90;;;;;;5055422;28;20135;-64
2024/01/26 09:05:15;;;;;;;9.95;1.90;;;7.60;99.90;;;;;;5037100;28;20490;-65
2024/01/26 09:07:41;;;;;;;9.27;1.65;;;7.60;99.90;;;;;;5055522;28;20037;-54
2024/01/26 09:10:08;;;;;;;12.07;1.77;;;7.70;99.90;;;;;;5054216;28;20394;-65
2024/01/26 09:12:35;;;;;;;12.68;1.63;;;7.70;99.90;;;;;;5054815;28;20049;-65
2024/01/26 09:15:02;;;;;;;7.20;1.40;;;7.70;99.90;;;;;;5054895;28;20171;-66
2024/01/26 09:17:29;;;;;;;8.07;1.50;;;7.70;99.90;;;;;;5055156;28;20386;-66
2024/01/26 09:19:56;;;;;;;5.10;1.38;;;7.70;99.90;;;;;;5053654;28;20048;-65
2024/01/26 09:22:24;;;;;;;7.95;1.42;;;7.70;99.90;;;;;;5054258;28;20041;-66
2024/01/26 09:24:51;;;;;;;7.68;1.50;;;7.70;99.90;;;;;;5054845;28;20060;-66
2024/01/26 09:27:19;;;;;;;10.38;1.48;;;7.70;99.90;;;;;;5055150;28;20375;-56
2024/01/26 09:29:46;;;;;;;9.77;1.73;;;7.70;99.90;;;;;;5054882;28;20045;-54
2024/01/26 09:32:13;;;;;;;7.13;1.27;;;7.70;99.90;;;;;;5053171;28;20051;-56
2024/01/26 09:34:40;;;;;;;5.93;1.55;;;7.70;99.90;;;;;;5054425;28;20390;-56
2024/01/26 09:37:07;;;;;;;10.57;1.85;;;7.70;99.90;;;;;;5054992;28;20045;-66
2024/01/26 09:39:34;;;;;;;10.77;1.70;;;7.70;99.90;;;;;;5054584;28;20041;-53
2024/01/26 09:42:00;;;;;;;8.20;2.13;;;7.70;99.90;;;;;;5054528;28;20470;-57
2024/01/26 09:44:27;;;;;;;7.65;1.65;;;7.70;99.90;;;;;;5054495;28;20047;-66
2024/01/26 09:46:54;;;;;;;10.32;1.58;;;7.70;99.90;;;;;;5054609;28;20045;-65
2024/01/26 09:49:21;;;;;;;7.43;1.60;;;7.80;99.90;;;;;;5054378;28;20120;-68
2024/01/26 09:51:47;;;;;;;8.57;1.70;;;7.80;99.90;;;;;;5054203;28;20103;-60
2024/01/26 09:54:14;;;;;;;7.97;1.70;;;7.80;99.90;;;;;;5038581;28;20500;-57
2024/01/26 09:56:41;;;;;;;8.30;1.60;;;7.80;99.90;;;;;;5034703;28;20092;-59
2024/01/26 09:59:08;;;;;;;9.45;1.80;;;7.80;99.90;;;;;;5034704;28;20104;-58
2024/01/26 10:01:35;;;;;;;7.68;1.80;;;7.80;99.90;;;;;;5034148;28;20382;-59
2024/01/26 10:04:02;;;;;;;9.85;1.65;;;7.90;99.90;;;;;;5033958;28;20045;-62
2024/01/26 10:06:30;;;;;;;9.23;1.83;;;7.90;99.90;;;;;;5034499;28;20038;-58
2024/01/26 10:08:57;;;;;;;8.30;1.70;;;7.90;99.90;;;;;;5034620;28;20394;-58
2024/01/26 10:11:24;;;;;;;7.40;1.75;;;7.90;99.90;;;;;;5034270;28;20552;-58
2024/01/26 10:13:51;;;;;;;10.77;1.70;;;7.90;99.90;;;;;;5032535;28;20053;-58
2024/01/26 10:16:18;;;;;;;7.85;1.73;;;7.90;99.90;;;;;;5034523;28;20050;-59
2024/01/26 10:18:45;;;;;;;8.70;1.60;;;8.00;99.90;;;;;;5034378;28;20133;-60
2024/01/26 10:21:13;;;;;;;16.05;2.92;;;8.00;99.90;;;;;;5034080;28;20398;-60
2024/01/26 10:23:40;;;;;;;10.80;1.90;;;8.00;99.90;;;;;;5032784;28;20049;-57
2024/01/26 10:26:10;;;;;;;12.82;2.63;;;8.00;99.90;;;;;;5033476;28;20045;-58
2024/01/26 10:28:37;;;;;;;10.52;2.22;;;8.10;99.90;;;;;;5034283;28;20033;-59
2024/01/26 10:31:05;;;;;;;12.98;2.00;;;8.10;99.90;;;;;;5033746;28;20115;-59
2024/01/26 10:33:32;;;;;;;10.52;2.08;;;8.20;99.90;;;;;;5033480;28;20096;-61
2024/01/26 10:36:00;;;;;;;13.77;1.85;;;8.10;99.90;;;;;;5033602;28;20045;-60
2024/01/26 10:38:28;;;;;;;11.27;1.63;;;8.20;99.90;;;;;;5033667;28;20038;-56
2024/01/26 10:40:55;;;;;;;15.18;3.33;;;8.10;99.90;;;;;;5033616;28;20045;-55
2024/01/26 10:43:22;;;;;;;8.35;1.90;;;8.20;99.90;;;;;;5033418;28;20044;-52
2024/01/26 10:45:48;;;;;;;14.15;2.10;;;8.20;99.90;;;;;;5034070;28;20450;-67
2024/01/26 10:48:15;;;;;;;12.88;2.00;;;8.20;99.90;;;;;;5033739;28;20061;-66
2024/01/26 10:50:43;;;;;;;8.82;2.20;;;8.20;99.90;;;;;;5033515;28;20045;-66
2024/01/26 10:53:10;;;;;;;10.15;2.15;;;8.20;99.90;;;;;;5033588;28;20421;-64
2024/01/26 10:55:36;;;;;;;13.07;2.35;;;8.20;99.90;;;;;;5033312;28;20046;-65
2024/01/26 10:58:03;;;;;;;9.52;2.05;;;8.30;99.90;;;;;;5033621;28;20479;-64
2024/01/26 11:00:30;;;;;;;12.10;2.22;;;8.20;99.90;;;;;;5033538;28;20037;-64
2024/01/26 11:02:57;;;;;;;10.43;1.90;;;8.30;99.90;;;;;;5032243;28;20111;-64
2024/01/26 11:05:24;;;;;;;9.80;2.20;;;8.30;99.90;;;;;;5033137;28;20136;-64
2024/01/26 11:07:51;;;;;;;12.00;2.53;;;8.30;99.90;;;;;;5033288;28;20121;-64
2024/01/26 11:10:17;;;;;;;10.23;1.90;;;8.40;99.90;;;;;;5033005;28;20029;-64
2024/01/26 11:12:44;;;;;;;9.73;2.40;;;8.40;99.90;;;;;;5032881;28;20060;-64
2024/01/26 11:15:13;;;;;;;11.25;2.22;;;8.50;99.90;;;;;;5031561;28;20053;-64
2024/01/26 11:17:41;;;;;;;9.60;2.15;;;8.40;99.90;;;;;;5026441;28;20046;-64
2024/01/26 11:20:08;;;;;;;9.65;2.03;;;8.50;99.90;;;;;;5014849;28;20038;-64
2024/01/26 11:22:35;;;;;;;13.75;2.53;;;8.40;99.90;;;;;;5019984;28;20046;-56
2024/01/26 11:25:02;;;;;;;10.70;2.20;;;8.50;99.90;;;;;;5015629;28;20050;-56
2024/01/26 11:27:29;;;;;;;12.80;2.20;;;8.50;99.90;;;;;;5019865;28;20095;-57
2024/01/26 11:29:55;;;;;;;9.35;1.98;;;8.50;99.90;;;;;;5032861;28;20029;-64
2024/01/26 11:32:22;;;;;;;10.70;2.22;;;8.50;99.90;;;;;;5032750;28;20033;-64
2024/01/26 11:34:49;;;;;;;12.15;2.38;;;8.60;99.90;;;;;;5032230;28;20141;-64
2024/01/26 11:37:16;;;;;;;15.98;2.75;;;8.60;99.90;;;;;;5032780;28;20129;-64
2024/01/26 11:39:43;;;;;;;11.65;2.20;;;8.60;99.70;;;;;;5032986;28;20033;-64
2024/01/26 11:42:10;;;;;;;10.40;1.75;;;8.60;99.90;;;;;;5032793;28;20045;-67
2024/01/26 11:44:37;;;;;;;10.90;1.90;;;8.60;99.90;;;;;;5030583;28;20057;-65
2024/01/26 11:47:04;;;;;;;9.68;2.53;;;8.70;99.60;;;;;;5030414;28;20045;-67
2024/01/26 11:49:31;;;;;;;11.73;2.40;;;8.70;99.70;;;;;;5025937;28;20160;-67
2024/01/26 11:51:58;;;;;;;13.88;1.88;;;8.70;99.30;;;;;;5032414;28;20037;-59
2024/01/26 11:54:28;;;;;;;9.82;2.10;;;8.70;99.90;;;;;;5052476;28;20037;-59
2024/01/26 11:56:55;;;;;;;9.38;1.88;;;8.70;99.50;;;;;;5052653;28;20404;-60
2024/01/26 11:59:22;;;;;;;12.88;2.20;;;8.70;99.20;;;;;;5052432;28;20045;-68
2024/01/26 12:01:49;;;;;;;8.25;1.60;;;8.70;99.30;;;;;;5052650;28;20470;-68
2024/01/26 12:04:16;;;;;;;16.10;2.42;;;8.70;99.90;;;;;;5052382;28;20123;-67
2024/01/26 12:06:43;;;;;;;9.77;2.17;;;8.80;99.40;;;;;;5053121;28;20462;-68
2024/01/26 12:09:12;;;;;;;12.52;2.00;;;8.80;99.20;;;;;;5052425;28;20111;-68
2024/01/26 12:11:39;;;;;;;11.00;2.00;;;8.80;99.00;;;;;;5052718;28;20049;-67
2024/01/26 12:14:06;;;;;;;7.40;1.80;;;8.80;99.10;;;;;;5052053;28;20103;-65
2024/01/26 12:16:33;;;;;;;7.70;1.92;;;8.80;99.50;;;;;;5052626;28;20435;-66
2024/01/26 12:19:01;;;;;;;12.02;2.15;;;8.80;99.40;;;;;;5052210;28;20049;-65
2024/01/26 12:21:28;;;;;;;14.27;2.95;;;8.80;99.50;;;;;;5052343;28;20037;-64
2024/01/26 12:23:55;;;;;;;14.60;2.60;;;8.90;99.90;;;;;;5052211;28;20486;-64
2024/01/26 12:26:22;;;;;;;12.55;2.42;;;8.90;99.90;;;;;;5052330;28;20115;-64
2024/01/26 12:28:49;;;;;;;13.25;2.67;;;8.90;99.90;;;;;;5052030;28;20044;-64
2024/01/26 12:31:16;;;;;;;11.68;2.83;;;8.90;99.90;;;;;;5052235;28;20401;-65
2024/01/26 12:33:43;;;;;;;10.43;2.13;;;9.00;99.40;;;;;;5051732;28;20047;-64
2024/01/26 12:36:10;;;;;;;9.05;2.42;;;9.00;99.50;;;;;;5052168;28;20144;-64
2024/01/26 12:38:37;;;;;;;10.55;2.25;;;9.00;99.00;;;;;;5052050;28;20243;-64
2024/01/26 12:41:03;;;;;;;11.98;2.30;;;9.00;99.40;;;;;;5052361;28;20041;-69
2024/01/26 12:43:31;;;;;;;13.68;2.58;;;9.10;99.20;;;;;;5052082;28;20037;-66
2024/01/26 12:45:57;;;;;;;12.52;2.72;;;9.10;98.60;;;;;;5051912;28;20045;-66
2024/01/26 12:48:24;;;;;;;9.48;2.03;;;9.10;99.00;;;;;;5055615;28;20040;-66